MSC Orchestra — 3EJF3 — position and weather

sailwx.info

Track history (hours):
 
Tides and Currents Weather Stations Pressure Air Temp Water Temp Dewpoint Dewpoint Depression Visibility Wind Speed Wind Dir Waves Ship Positions

MSC Orchestra

Last reported at 2016-Jul-30 13:09 UTC. Time now 2016-Jul-30 18:54 UTC.
Position N 42°22' E 018°31'.

Length 292 m; draft 7.8 m.

Type: Ship. MMSI: 372497000.

Date/timePositionNaut miles runAvg speedWind from/ knotsBaromVisibWave heightAir tempDewpointWater temp
2016-Jul-30 13:09N 42°22' E 018°31'5 8.7
2016-Jul-30 12:34N 42°26' E 018°36'7 6.8
2016-Jul-30 11:33N 42°27' E 018°45'2 1.5
2016-Jul-30 10:31N 42°26' E 018°46'0 0.0
2016-Jul-30 09:33N 42°26' E 018°46'0 0.0
2016-Jul-30 07:14N 42°26' E 018°46'0 0.0
2016-Jul-30 06:32N 42°26' E 018°46'0 0.0
2016-Jul-30 05:32N 42°26' E 018°46'0 0.0
2016-Jul-30 04:33N 42°26' E 018°46'4 4.5
2016-Jul-30 03:33N 42°27' E 018°40'6 6.2
2016-Jul-30 02:31N 42°22' E 018°33'1313.7
2016-Jul-30 01:33N 42°09' E 018°37'1716.6
2016-Jul-30 00:33N 41°53' E 018°42'1817.1
2016-Jul-29 23:31N 41°36' E 018°47'34611.1
2016-Jul-28 16:17N 37°10' E 023°35'1419.7
2016-Jul-28 15:34N 37°24' E 023°39'2019.6
2016-Jul-28 14:34N 37°44' E 023°39'1211.9
2016-Jul-28 13:31N 37°56' E 023°38'0 0.0
2016-Jul-28 12:31N 37°56' E 023°38'0 0.0
2016-Jul-28 11:31N 37°56' E 023°38'0 0.0
2016-Jul-28 10:33N 37°56' E 023°38'0 0.0
2016-Jul-28 09:33N 37°56' E 023°38'0 0.0
2016-Jul-28 08:32N 37°56' E 023°38'0 0.0
2016-Jul-28 07:32N 37°56' E 023°38'0 0.0
2016-Jul-28 06:31N 37°56' E 023°38'0 0.0
2016-Jul-28 05:31N 37°56' E 023°38'0 0.0
2016-Jul-28 04:31N 37°56' E 023°38'1 1.5
2016-Jul-28 03:33N 37°55' E 023°37'8 7.9
2016-Jul-28 02:33N 37°48' E 023°41'1010.0
2016-Jul-28 01:33N 37°39' E 023°46'1110.4
2016-Jul-28 00:33N 37°29' E 023°47'1010.2
2016-Jul-27 23:34N 37°19' E 023°51'10 9.8
2016-Jul-27 22:33N 37°10' E 023°56'51 2.3
2016-Jul-27 00:16N 36°20' E 024°10'1217.4
2016-Jul-26 23:33N 36°20' E 023°55'66313.2
2016-Jul-24 21:20N 44°17' E 013°52'1620.1
2016-Jul-24 20:32N 44°30' E 013°39'3919.9
2016-Jul-24 18:33N 45°02' E 013°06'2019.8
2016-Jul-24 17:33N 45°15' E 012°45'1818.1
2016-Jul-24 16:34N 45°26' E 012°25'4 3.5
2016-Jul-24 15:22N 45°26' E 012°19'0 0.0
2016-Jul-24 14:31N 45°26' E 012°19'0 0.0
2016-Jul-24 13:33N 45°26' E 012°19'0 0.0
2016-Jul-24 12:33N 45°26' E 012°19'0 0.0
2016-Jul-24 11:32N 45°26' E 012°19'0 0.0
2016-Jul-24 10:32N 45°26' E 012°19'0 0.0
2016-Jul-24 09:32N 45°26' E 012°19'0 0.0
2016-Jul-24 08:31N 45°26' E 012°19'0 0.0
2016-Jul-24 07:31N 45°26' E 012°19'3 2.6
2016-Jul-24 06:33N 45°25' E 012°22'1211.7
2016-Jul-24 05:33N 45°21' E 012°37'1919.1
2016-Jul-24 04:33N 45°08' E 012°58'2219.1
2016-Jul-24 03:26N 44°56' E 013°23'1719.7
2016-Jul-24 02:33N 44°41' E 013°36'2019.7
2016-Jul-24 01:33N 44°25' E 013°52'2019.6
2016-Jul-24 00:34N 44°09' E 014°07'2019.7
2016-Jul-23 23:33N 43°54' E 014°25'1919.4
2016-Jul-23 22:33N 43°41' E 014°44'1817.7
2016-Jul-23 21:33N 43°28' E 015°02'2520.1
2016-Jul-23 20:18N 43°10' E 015°26'14319.7
2016-Jul-23 13:03N 42°22' E 018°29'611.2
2016-Jul-23 12:33N 42°26' E 018°35'7 7.0
2016-Jul-23 11:33N 42°29' E 018°43'3 3.1
2016-Jul-23 10:30N 42°26' E 018°46'0 0.0
2016-Jul-23 09:33N 42°26' E 018°46'0 0.0
2016-Jul-23 08:32N 42°26' E 018°46'0 0.0
2016-Jul-23 07:29N 42°26' E 018°46'0 0.0
2016-Jul-23 06:28N 42°26' E 018°46'0 0.0
2016-Jul-23 04:33N 42°26' E 018°46'5 4.6
2016-Jul-23 03:33N 42°27' E 018°40'6 6.2
2016-Jul-23 02:33N 42°22' E 018°33'1414.5
2016-Jul-23 01:34N 42°08' E 018°38'1716.9
2016-Jul-23 00:32N 41°52' E 018°43'1817.9
2016-Jul-22 23:34N 41°35' E 018°48'1717.4
2016-Jul-22 22:33N 41°18' E 018°54'32710.7
2016-Jul-21 16:06N 37°14' E 023°36'1220.7
2016-Jul-21 15:31N 37°26' E 023°39'1920.0
2016-Jul-21 14:33N 37°45' E 023°39'1110.6
2016-Jul-21 13:31N 37°56' E 023°38'0 0.0
2016-Jul-21 12:31N 37°56' E 023°38'0 0.0
2016-Jul-21 11:33N 37°56' E 023°38'0 0.0
2016-Jul-21 10:33N 37°56' E 023°38'0 0.0
2016-Jul-21 09:33N 37°56' E 023°38'0 0.0
2016-Jul-21 08:32N 37°56' E 023°38'0 0.0
2016-Jul-21 07:32N 37°56' E 023°38'0 0.0
2016-Jul-21 06:31N 37°56' E 023°38'0 0.0
2016-Jul-21 05:28N 37°56' E 023°38'0 0.0
2016-Jul-21 04:33N 37°56' E 023°38'2 1.5
2016-Jul-21 03:34N 37°55' E 023°37'7 7.1
2016-Jul-21 02:34N 37°49' E 023°40'9 8.8
2016-Jul-21 01:34N 37°41' E 023°45'9 8.7
2016-Jul-21 00:34N 37°33' E 023°47'9 8.8
2016-Jul-20 23:33N 37°24' E 023°50'  
Track history (hours):
 
Tides and Currents Weather Stations Pressure Air Temp Water Temp Dewpoint Dewpoint Depression Visibility Wind Speed Wind Dir Waves Ship Positions

MSC Orchestra

Last reported at 2016-Jul-30 13:09 UTC. Time now 2016-Jul-30 18:54 UTC.
Position N 42°22' E 018°31'.

Length 292 m; draft 7.8 m.

Type: Ship. MMSI: 372497000.

Date/timePositionNaut miles runAvg speedWind from/ knotsBaromVisibWave heightAir tempDewpointWater temp
2016-Jul-30 13:09N 42°22' E 018°31'5 8.7
2016-Jul-30 12:34N 42°26' E 018°36'7 6.8
2016-Jul-30 11:33N 42°27' E 018°45'2 1.5
2016-Jul-30 10:31N 42°26' E 018°46'0 0.0
2016-Jul-30 09:33N 42°26' E 018°46'0 0.0
2016-Jul-30 07:14N 42°26' E 018°46'0 0.0
2016-Jul-30 06:32N 42°26' E 018°46'0 0.0
2016-Jul-30 05:32N 42°26' E 018°46'0 0.0
2016-Jul-30 04:33N 42°26' E 018°46'4 4.5
2016-Jul-30 03:33N 42°27' E 018°40'6 6.2
2016-Jul-30 02:31N 42°22' E 018°33'1313.7
2016-Jul-30 01:33N 42°09' E 018°37'1716.6
2016-Jul-30 00:33N 41°53' E 018°42'1817.1
2016-Jul-29 23:31N 41°36' E 018°47'34611.1
2016-Jul-28 16:17N 37°10' E 023°35'1419.7
2016-Jul-28 15:34N 37°24' E 023°39'2019.6
2016-Jul-28 14:34N 37°44' E 023°39'1211.9
2016-Jul-28 13:31N 37°56' E 023°38'0 0.0
2016-Jul-28 12:31N 37°56' E 023°38'0 0.0
2016-Jul-28 11:31N 37°56' E 023°38'0 0.0
2016-Jul-28 10:33N 37°56' E 023°38'0 0.0
2016-Jul-28 09:33N 37°56' E 023°38'0 0.0
2016-Jul-28 08:32N 37°56' E 023°38'0 0.0
2016-Jul-28 07:32N 37°56' E 023°38'0 0.0
2016-Jul-28 06:31N 37°56' E 023°38'0 0.0
2016-Jul-28 05:31N 37°56' E 023°38'0 0.0
2016-Jul-28 04:31N 37°56' E 023°38'1 1.5
2016-Jul-28 03:33N 37°55' E 023°37'8 7.9
2016-Jul-28 02:33N 37°48' E 023°41'1010.0
2016-Jul-28 01:33N 37°39' E 023°46'1110.4
2016-Jul-28 00:33N 37°29' E 023°47'1010.2
2016-Jul-27 23:34N 37°19' E 023°51'10 9.8
2016-Jul-27 22:33N 37°10' E 023°56'51 2.3
2016-Jul-27 00:16N 36°20' E 024°10'1217.4
2016-Jul-26 23:33N 36°20' E 023°55'66313.2
2016-Jul-24 21:20N 44°17' E 013°52'1620.1
2016-Jul-24 20:32N 44°30' E 013°39'3919.9
2016-Jul-24 18:33N 45°02' E 013°06'2019.8
2016-Jul-24 17:33N 45°15' E 012°45'1818.1
2016-Jul-24 16:34N 45°26' E 012°25'4 3.5
2016-Jul-24 15:22N 45°26' E 012°19'0 0.0
2016-Jul-24 14:31N 45°26' E 012°19'0 0.0
2016-Jul-24 13:33N 45°26' E 012°19'0 0.0
2016-Jul-24 12:33N 45°26' E 012°19'0 0.0
2016-Jul-24 11:32N 45°26' E 012°19'0 0.0
2016-Jul-24 10:32N 45°26' E 012°19'0 0.0
2016-Jul-24 09:32N 45°26' E 012°19'0 0.0
2016-Jul-24 08:31N 45°26' E 012°19'0 0.0
2016-Jul-24 07:31N 45°26' E 012°19'3 2.6
2016-Jul-24 06:33N 45°25' E 012°22'1211.7
2016-Jul-24 05:33N 45°21' E 012°37'1919.1
2016-Jul-24 04:33N 45°08' E 012°58'2219.1
2016-Jul-24 03:26N 44°56' E 013°23'1719.7
2016-Jul-24 02:33N 44°41' E 013°36'2019.7
2016-Jul-24 01:33N 44°25' E 013°52'2019.6
2016-Jul-24 00:34N 44°09' E 014°07'2019.7
2016-Jul-23 23:33N 43°54' E 014°25'1919.4
2016-Jul-23 22:33N 43°41' E 014°44'1817.7
2016-Jul-23 21:33N 43°28' E 015°02'2520.1
2016-Jul-23 20:18N 43°10' E 015°26'14319.7
2016-Jul-23 13:03N 42°22' E 018°29'611.2
2016-Jul-23 12:33N 42°26' E 018°35'7 7.0
2016-Jul-23 11:33N 42°29' E 018°43'3 3.1
2016-Jul-23 10:30N 42°26' E 018°46'0 0.0
2016-Jul-23 09:33N 42°26' E 018°46'0 0.0
2016-Jul-23 08:32N 42°26' E 018°46'0 0.0
2016-Jul-23 07:29N 42°26' E 018°46'0 0.0
2016-Jul-23 06:28N 42°26' E 018°46'0 0.0
2016-Jul-23 04:33N 42°26' E 018°46'5 4.6
2016-Jul-23 03:33N 42°27' E 018°40'6 6.2
2016-Jul-23 02:33N 42°22' E 018°33'1414.5
2016-Jul-23 01:34N 42°08' E 018°38'1716.9
2016-Jul-23 00:32N 41°52' E 018°43'1817.9
2016-Jul-22 23:34N 41°35' E 018°48'1717.4
2016-Jul-22 22:33N 41°18' E 018°54'32710.7
2016-Jul-21 16:06N 37°14' E 023°36'1220.7
2016-Jul-21 15:31N 37°26' E 023°39'1920.0
2016-Jul-21 14:33N 37°45' E 023°39'1110.6
2016-Jul-21 13:31N 37°56' E 023°38'0 0.0
2016-Jul-21 12:31N 37°56' E 023°38'0 0.0
2016-Jul-21 11:33N 37°56' E 023°38'0 0.0
2016-Jul-21 10:33N 37°56' E 023°38'0 0.0
2016-Jul-21 09:33N 37°56' E 023°38'0 0.0
2016-Jul-21 08:32N 37°56' E 023°38'0 0.0
2016-Jul-21 07:32N 37°56' E 023°38'0 0.0
2016-Jul-21 06:31N 37°56' E 023°38'0 0.0
2016-Jul-21 05:28N 37°56' E 023°38'0 0.0
2016-Jul-21 04:33N 37°56' E 023°38'2 1.5
2016-Jul-21 03:34N 37°55' E 023°37'7 7.1
2016-Jul-21 02:34N 37°49' E 023°40'9 8.8
2016-Jul-21 01:34N 37°41' E 023°45'9 8.7
2016-Jul-21 00:34N 37°33' E 023°47'9 8.8
2016-Jul-20 23:33N 37°24' E 023°50'  

Dump ship's entire track history